LESA/SLM METAR and TAF weather

Enter ICAO airport designator
Station Type Date Time Source
LESA METAR 2020/01/24 21:00 UTC NOAA

LESA 242100Z AUTO 08005KT 030V110 9999 FEW041 05/04 Q1018


Station Type Date Time Source
LESA Decoded METAR 2020/01/24 21:00 UTC NOAA

Salamanca / Matacan, Spain (LESA) 40-57N 005-30W 795M
Jan 24, 2020 - 04:00 PM EST / 2020.01.24 2100 UTC
Wind: from the E (080 degrees) at 6 MPH (5 KT) (direction variable):0
Visibility: greater than 7 mile(s):0
Sky conditions: mostly clear
Temperature: 41 F (5 C)
Dew Point: 39 F (4 C)
Relative Humidity: 93%
Pressure (altimeter): 30.06 in. Hg (1018 hPa)
ob: LESA 242100Z AUTO 08005KT 030V110 9999 FEW041 05/04 Q1018
cycle: 21

Station Type Date Time Source
LESA TAF 2020/01/24 18:27 UTC NOAA

TAF TAF LESA 241700Z 2418/2518 VRB05KT 9999 SCT030 BKN045 TX07/2515Z TN01/2506Z PROB30
TEMPO 2422/2506 0300 FG BKN003 PROB40
TEMPO 2500/2518 2000 RA BR BKN010

Example: see airport list